sensor_id;sensor_type;location;lat;lon;timestamp;temperature;humidity
7844;DHT22;3967;48.702;9.326;2023-07-29T00:01:32;19.30;99.90
7844;DHT22;3967;48.702;9.326;2023-07-29T00:03:59;19.30;99.90
7844;DHT22;3967;48.702;9.326;2023-07-29T00:06:26;19.30;99.90
7844;DHT22;3967;48.702;9.326;2023-07-29T00:08:53;19.30;99.90
7844;DHT22;3967;48.702;9.326;2023-07-29T00:11:20;19.30;99.90
7844;DHT22;3967;48.702;9.326;2023-07-29T00:13:46;19.30;99.90
7844;DHT22;3967;48.702;9.326;2023-07-29T00:16:13;19.30;99.90
7844;DHT22;3967;48.702;9.326;2023-07-29T00:18:42;19.20;99.90
7844;DHT22;3967;48.702;9.326;2023-07-29T00:21:09;19.10;99.90
7844;DHT22;3967;48.702;9.326;2023-07-29T00:23:36;19.00;99.90
7844;DHT22;3967;48.702;9.326;2023-07-29T00:26:02;19.00;99.90
7844;DHT22;3967;48.702;9.326;2023-07-29T00:28:29;18.90;99.90
7844;DHT22;3967;48.702;9.326;2023-07-29T00:30:56;19.00;99.90
7844;DHT22;3967;48.702;9.326;2023-07-29T00:33:23;19.10;99.90
7844;DHT22;3967;48.702;9.326;2023-07-29T00:35:50;19.20;99.90
7844;DHT22;3967;48.702;9.326;2023-07-29T00:38:16;19.20;99.90
7844;DHT22;3967;48.702;9.326;2023-07-29T00:40:43;19.20;99.90
7844;DHT22;3967;48.702;9.326;2023-07-29T00:43:10;19.20;99.90
7844;DHT22;3967;48.702;9.326;2023-07-29T00:45:37;19.20;99.90
7844;DHT22;3967;48.702;9.326;2023-07-29T00:48:05;19.20;99.90
7844;DHT22;3967;48.702;9.326;2023-07-29T00:50:32;19.20;99.90
7844;DHT22;3967;48.702;9.326;2023-07-29T00:52:59;19.20;99.90
7844;DHT22;3967;48.702;9.326;2023-07-29T00:55:26;19.20;99.90
7844;DHT22;3967;48.702;9.326;2023-07-29T00:57:54;19.20;99.90
7844;DHT22;3967;48.702;9.326;2023-07-29T01:00:21;19.20;99.90
7844;DHT22;3967;48.702;9.326;2023-07-29T01:02:48;19.10;99.90
7844;DHT22;3967;48.702;9.326;2023-07-29T01:05:16;19.10;99.90
7844;DHT22;3967;48.702;9.326;2023-07-29T01:07:47;19.10;99.90
7844;DHT22;3967;48.702;9.326;2023-07-29T01:13:39;19.20;99.90
7844;DHT22;3967;48.702;9.326;2023-07-29T01:16:20;19.10;99.90
7844;DHT22;3967;48.702;9.326;2023-07-29T01:18:49;19.10;99.90
7844;DHT22;3967;48.702;9.326;2023-07-29T01:21:18;19.10;99.90
7844;DHT22;3967;48.702;9.326;2023-07-29T01:23:46;19.00;99.90
7844;DHT22;3967;48.702;9.326;2023-07-29T01:26:12;19.00;99.90
7844;DHT22;3967;48.702;9.326;2023-07-29T01:28:39;19.00;99.90
7844;DHT22;3967;48.702;9.326;2023-07-29T01:31:27;19.00;99.90
7844;DHT22;3967;48.702;9.326;2023-07-29T01:34:01;19.10;99.90
7844;DHT22;3967;48.702;9.326;2023-07-29T01:36:31;19.00;99.90
7844;DHT22;3967;48.702;9.326;2023-07-29T01:39:02;19.00;99.90
7844;DHT22;3967;48.702;9.326;2023-07-29T01:41:29;19.00;99.90
7844;DHT22;3967;48.702;9.326;2023-07-29T01:43:57;19.00;99.90
7844;DHT22;3967;48.702;9.326;2023-07-29T01:46:25;19.10;99.90
7844;DHT22;3967;48.702;9.326;2023-07-29T01:48:51;19.10;99.90
7844;DHT22;3967;48.702;9.326;2023-07-29T01:51:18;19.10;99.90
7844;DHT22;3967;48.702;9.326;2023-07-29T01:53:45;19.10;99.90
7844;DHT22;3967;48.702;9.326;2023-07-29T01:56:12;19.00;99.90
7844;DHT22;3967;48.702;9.326;2023-07-29T01:58:39;19.00;99.90
7844;DHT22;3967;48.702;9.326;2023-07-29T02:01:05;19.00;99.90
7844;DHT22;3967;48.702;9.326;2023-07-29T02:03:32;18.90;99.90
7844;DHT22;3967;48.702;9.326;2023-07-29T02:05:59;18.80;99.90
7844;DHT22;3967;48.702;9.326;2023-07-29T02:08:26;18.80;99.90
7844;DHT22;3967;48.702;9.326;2023-07-29T02:10:52;18.80;99.90
7844;DHT22;3967;48.702;9.326;2023-07-29T02:13:19;18.90;99.90
7844;DHT22;3967;48.702;9.326;2023-07-29T02:15:46;18.80;99.90
7844;DHT22;3967;48.702;9.326;2023-07-29T02:18:13;18.80;99.90
7844;DHT22;3967;48.702;9.326;2023-07-29T02:20:39;18.90;99.90
7844;DHT22;3967;48.702;9.326;2023-07-29T02:23:07;18.80;99.90
7844;DHT22;3967;48.702;9.326;2023-07-29T02:25:35;18.70;99.90
7844;DHT22;3967;48.702;9.326;2023-07-29T02:28:03;18.60;99.90
7844;DHT22;3967;48.702;9.326;2023-07-29T02:30:30;18.60;99.90
7844;DHT22;3967;48.702;9.326;2023-07-29T02:32:57;18.70;99.90
7844;DHT22;3967;48.702;9.326;2023-07-29T02:35:24;18.60;99.90
7844;DHT22;3967;48.702;9.326;2023-07-29T02:37:51;18.60;99.90
7844;DHT22;3967;48.702;9.326;2023-07-29T02:40:18;18.80;99.90
7844;DHT22;3967;48.702;9.326;2023-07-29T02:42:44;18.60;99.90
7844;DHT22;3967;48.702;9.326;2023-07-29T02:45:11;18.60;99.90
7844;DHT22;3967;48.702;9.326;2023-07-29T02:47:38;18.60;99.90
7844;DHT22;3967;48.702;9.326;2023-07-29T02:50:05;18.60;99.90
7844;DHT22;3967;48.702;9.326;2023-07-29T02:52:32;18.70;99.90
7844;DHT22;3967;48.702;9.326;2023-07-29T02:54:58;18.70;99.90
7844;DHT22;3967;48.702;9.326;2023-07-29T02:57:25;18.70;99.90
7844;DHT22;3967;48.702;9.326;2023-07-29T02:59:52;18.70;99.90
7844;DHT22;3967;48.702;9.326;2023-07-29T03:02:19;18.70;99.90
7844;DHT22;3967;48.702;9.326;2023-07-29T03:04:48;18.70;99.90
7844;DHT22;3967;48.702;9.326;2023-07-29T03:07:14;18.70;99.90
7844;DHT22;3967;48.702;9.326;2023-07-29T03:09:41;18.80;99.90
7844;DHT22;3967;48.702;9.326;2023-07-29T03:12:08;18.80;99.90
7844;DHT22;3967;48.702;9.326;2023-07-29T03:14:35;18.80;99.90
7844;DHT22;3967;48.702;9.326;2023-07-29T03:17:03;18.80;99.90
7844;DHT22;3967;48.702;9.326;2023-07-29T03:19:31;18.80;99.90
7844;DHT22;3967;48.702;9.326;2023-07-29T03:21:57;18.70;99.90
7844;DHT22;3967;48.702;9.326;2023-07-29T03:24:24;18.70;99.90
7844;DHT22;3967;48.702;9.326;2023-07-29T03:26:51;18.70;99.90
7844;DHT22;3967;48.702;9.326;2023-07-29T03:29:18;18.70;99.90
7844;DHT22;3967;48.702;9.326;2023-07-29T03:31:44;18.70;99.90
7844;DHT22;3967;48.702;9.326;2023-07-29T03:34:11;18.70;99.90
7844;DHT22;3967;48.702;9.326;2023-07-29T03:36:39;18.70;99.90
7844;DHT22;3967;48.702;9.326;2023-07-29T03:39:05;18.60;99.90
7844;DHT22;3967;48.702;9.326;2023-07-29T03:41:32;18.70;99.90
7844;DHT22;3967;48.702;9.326;2023-07-29T03:43:59;18.60;99.90
7844;DHT22;3967;48.702;9.326;2023-07-29T03:46:25;18.70;99.90
7844;DHT22;3967;48.702;9.326;2023-07-29T03:48:52;18.70;99.90
7844;DHT22;3967;48.702;9.326;2023-07-29T03:51:19;18.70;99.90
7844;DHT22;3967;48.702;9.326;2023-07-29T03:53:45;18.60;99.90
7844;DHT22;3967;48.702;9.326;2023-07-29T03:56:12;18.60;99.90
7844;DHT22;3967;48.702;9.326;2023-07-29T03:58:39;18.60;99.90
7844;DHT22;3967;48.702;9.326;2023-07-29T04:01:06;18.50;99.90
7844;DHT22;3967;48.702;9.326;2023-07-29T04:03:33;18.40;99.90
7844;DHT22;3967;48.702;9.326;2023-07-29T04:06:01;18.40;99.90
7844;DHT22;3967;48.702;9.326;2023-07-29T04:08:27;18.40;99.90
7844;DHT22;3967;48.702;9.326;2023-07-29T04:10:54;18.60;99.90
7844;DHT22;3967;48.702;9.326;2023-07-29T04:13:21;18.60;99.90
7844;DHT22;3967;48.702;9.326;2023-07-29T04:15:48;18.60;99.90
7844;DHT22;3967;48.702;9.326;2023-07-29T04:18:15;18.70;99.90
7844;DHT22;3967;48.702;9.326;2023-07-29T04:20:41;18.70;99.90
7844;DHT22;3967;48.702;9.326;2023-07-29T04:23:08;18.60;99.90
7844;DHT22;3967;48.702;9.326;2023-07-29T04:25:35;18.60;99.90
7844;DHT22;3967;48.702;9.326;2023-07-29T04:28:02;18.60;99.90
7844;DHT22;3967;48.702;9.326;2023-07-29T04:30:30;18.50;99.90
7844;DHT22;3967;48.702;9.326;2023-07-29T04:32:56;18.50;99.90
7844;DHT22;3967;48.702;9.326;2023-07-29T04:35:23;18.60;99.90
7844;DHT22;3967;48.702;9.326;2023-07-29T04:37:50;18.70;99.90
7844;DHT22;3967;48.702;9.326;2023-07-29T04:40:17;18.70;99.90
7844;DHT22;3967;48.702;9.326;2023-07-29T04:42:44;18.60;99.90
7844;DHT22;3967;48.702;9.326;2023-07-29T04:45:10;18.60;99.90
7844;DHT22;3967;48.702;9.326;2023-07-29T04:47:37;18.40;99.90
7844;DHT22;3967;48.702;9.326;2023-07-29T04:50:04;18.40;99.90
7844;DHT22;3967;48.702;9.326;2023-07-29T04:52:32;18.40;99.90
7844;DHT22;3967;48.702;9.326;2023-07-29T04:54:59;18.40;99.90
7844;DHT22;3967;48.702;9.326;2023-07-29T04:57:26;18.20;99.90
7844;DHT22;3967;48.702;9.326;2023-07-29T04:59:52;18.20;99.90
7844;DHT22;3967;48.702;9.326;2023-07-29T05:02:19;18.40;99.90
7844;DHT22;3967;48.702;9.326;2023-07-29T05:04:47;18.30;99.90
7844;DHT22;3967;48.702;9.326;2023-07-29T05:07:14;18.40;99.90
7844;DHT22;3967;48.702;9.326;2023-07-29T05:09:41;18.40;99.90
7844;DHT22;3967;48.702;9.326;2023-07-29T05:12:08;18.50;99.90
7844;DHT22;3967;48.702;9.326;2023-07-29T05:14:34;18.50;99.90
7844;DHT22;3967;48.702;9.326;2023-07-29T05:17:01;18.40;99.90
7844;DHT22;3967;48.702;9.326;2023-07-29T05:19:28;18.50;99.90
7844;DHT22;3967;48.702;9.326;2023-07-29T05:21:56;18.50;99.90
7844;DHT22;3967;48.702;9.326;2023-07-29T05:24:23;18.60;99.90
7844;DHT22;3967;48.702;9.326;2023-07-29T05:26:50;18.60;99.90
7844;DHT22;3967;48.702;9.326;2023-07-29T05:29:17;18.60;99.90
7844;DHT22;3967;48.702;9.326;2023-07-29T05:31:44;18.60;99.90
7844;DHT22;3967;48.702;9.326;2023-07-29T05:34:10;18.70;99.90
7844;DHT22;3967;48.702;9.326;2023-07-29T05:36:37;18.60;99.90
7844;DHT22;3967;48.702;9.326;2023-07-29T05:39:05;18.60;99.90
7844;DHT22;3967;48.702;9.326;2023-07-29T05:41:33;18.50;99.90
7844;DHT22;3967;48.702;9.326;2023-07-29T05:44:01;18.50;99.90
7844;DHT22;3967;48.702;9.326;2023-07-29T05:46:27;18.50;99.90
7844;DHT22;3967;48.702;9.326;2023-07-29T05:48:54;18.40;99.90
7844;DHT22;3967;48.702;9.326;2023-07-29T05:51:21;18.20;99.90
7844;DHT22;3967;48.702;9.326;2023-07-29T05:53:48;18.20;99.90
7844;DHT22;3967;48.702;9.326;2023-07-29T05:56:14;18.20;99.90
7844;DHT22;3967;48.702;9.326;2023-07-29T05:58:41;18.30;99.90
7844;DHT22;3967;48.702;9.326;2023-07-29T06:01:08;18.30;99.90
7844;DHT22;3967;48.702;9.326;2023-07-29T06:03:35;18.40;99.90
7844;DHT22;3967;48.702;9.326;2023-07-29T06:06:02;18.40;99.90
7844;DHT22;3967;48.702;9.326;2023-07-29T06:08:28;18.50;99.90
7844;DHT22;3967;48.702;9.326;2023-07-29T06:10:55;18.50;99.90
7844;DHT22;3967;48.702;9.326;2023-07-29T06:13:22;18.40;99.90
7844;DHT22;3967;48.702;9.326;2023-07-29T06:15:49;18.50;99.90
7844;DHT22;3967;48.702;9.326;2023-07-29T06:18:16;18.50;99.90
7844;DHT22;3967;48.702;9.326;2023-07-29T06:20:43;18.50;99.90
7844;DHT22;3967;48.702;9.326;2023-07-29T06:23:10;18.70;99.90
7844;DHT22;3967;48.702;9.326;2023-07-29T06:25:36;18.80;99.90
7844;DHT22;3967;48.702;9.326;2023-07-29T06:28:03;18.80;99.90
7844;DHT22;3967;48.702;9.326;2023-07-29T06:30:31;18.90;99.90
7844;DHT22;3967;48.702;9.326;2023-07-29T06:32:58;18.90;99.90
7844;DHT22;3967;48.702;9.326;2023-07-29T06:35:25;18.90;99.90
7844;DHT22;3967;48.702;9.326;2023-07-29T06:37:51;19.10;99.90
7844;DHT22;3967;48.702;9.326;2023-07-29T06:40:18;19.20;99.90
7844;DHT22;3967;48.702;9.326;2023-07-29T06:42:45;19.30;99.90
7844;DHT22;3967;48.702;9.326;2023-07-29T06:45:12;19.50;99.90
7844;DHT22;3967;48.702;9.326;2023-07-29T06:47:38;19.60;99.90
7844;DHT22;3967;48.702;9.326;2023-07-29T06:50:05;19.60;99.90
7844;DHT22;3967;48.702;9.326;2023-07-29T06:52:32;19.60;99.90
7844;DHT22;3967;48.702;9.326;2023-07-29T06:54:59;19.60;99.90
7844;DHT22;3967;48.702;9.326;2023-07-29T06:57:26;19.70;99.90
7844;DHT22;3967;48.702;9.326;2023-07-29T06:59:52;19.60;99.90
7844;DHT22;3967;48.702;9.326;2023-07-29T07:02:19;19.70;99.90
7844;DHT22;3967;48.702;9.326;2023-07-29T07:04:46;19.60;99.90
7844;DHT22;3967;48.702;9.326;2023-07-29T07:07:13;19.40;99.90
7844;DHT22;3967;48.702;9.326;2023-07-29T07:09:40;19.50;99.90
7844;DHT22;3967;48.702;9.326;2023-07-29T07:12:07;19.50;99.90
7844;DHT22;3967;48.702;9.326;2023-07-29T07:14:34;19.50;99.90
7844;DHT22;3967;48.702;9.326;2023-07-29T07:17:01;19.10;99.90
7844;DHT22;3967;48.702;9.326;2023-07-29T07:19:27;19.10;99.90
7844;DHT22;3967;48.702;9.326;2023-07-29T07:21:54;19.10;99.90
7844;DHT22;3967;48.702;9.326;2023-07-29T07:24:21;19.10;99.90
7844;DHT22;3967;48.702;9.326;2023-07-29T07:26:48;19.00;99.90
7844;DHT22;3967;48.702;9.326;2023-07-29T07:29:15;18.90;99.90
7844;DHT22;3967;48.702;9.326;2023-07-29T07:31:52;19.00;99.90
7844;DHT22;3967;48.702;9.326;2023-07-29T07:34:20;19.00;99.90
7844;DHT22;3967;48.702;9.326;2023-07-29T07:36:47;18.90;99.90
7844;DHT22;3967;48.702;9.326;2023-07-29T07:39:14;19.00;99.90
7844;DHT22;3967;48.702;9.326;2023-07-29T07:41:42;19.10;99.90
7844;DHT22;3967;48.702;9.326;2023-07-29T07:44:09;19.00;99.90
7844;DHT22;3967;48.702;9.326;2023-07-29T07:46:36;19.20;99.90
7844;DHT22;3967;48.702;9.326;2023-07-29T07:49:03;19.10;99.90
7844;DHT22;3967;48.702;9.326;2023-07-29T07:51:30;19.20;99.90
7844;DHT22;3967;48.702;9.326;2023-07-29T07:53:57;19.30;99.90
7844;DHT22;3967;48.702;9.326;2023-07-29T07:56:23;19.30;99.90
7844;DHT22;3967;48.702;9.326;2023-07-29T07:58:50;19.30;99.90
7844;DHT22;3967;48.702;9.326;2023-07-29T08:01:17;19.40;99.90
7844;DHT22;3967;48.702;9.326;2023-07-29T08:03:44;19.40;99.90
7844;DHT22;3967;48.702;9.326;2023-07-29T08:06:11;19.50;99.90
7844;DHT22;3967;48.702;9.326;2023-07-29T08:08:38;19.50;99.90
7844;DHT22;3967;48.702;9.326;2023-07-29T08:11:05;19.60;99.90
7844;DHT22;3967;48.702;9.326;2023-07-29T08:13:32;19.60;99.90
7844;DHT22;3967;48.702;9.326;2023-07-29T08:15:58;19.70;99.90
7844;DHT22;3967;48.702;9.326;2023-07-29T08:18:25;19.70;99.90
7844;DHT22;3967;48.702;9.326;2023-07-29T08:21:01;19.80;99.90
7844;DHT22;3967;48.702;9.326;2023-07-29T08:23:32;19.90;99.90
7844;DHT22;3967;48.702;9.326;2023-07-29T08:26:01;20.00;99.90
7844;DHT22;3967;48.702;9.326;2023-07-29T08:28:34;20.10;99.90
7844;DHT22;3967;48.702;9.326;2023-07-29T08:31:01;20.10;99.90
7844;DHT22;3967;48.702;9.326;2023-07-29T08:33:28;20.20;99.90
7844;DHT22;3967;48.702;9.326;2023-07-29T08:35:55;20.30;99.90
7844;DHT22;3967;48.702;9.326;2023-07-29T08:38:22;20.40;99.90
7844;DHT22;3967;48.702;9.326;2023-07-29T08:43:17;20.60;99.90
7844;DHT22;3967;48.702;9.326;2023-07-29T08:45:45;20.60;99.90
7844;DHT22;3967;48.702;9.326;2023-07-29T08:48:15;20.70;99.90
7844;DHT22;3967;48.702;9.326;2023-07-29T08:50:46;20.60;99.90
7844;DHT22;3967;48.702;9.326;2023-07-29T08:53:13;20.70;99.90
7844;DHT22;3967;48.702;9.326;2023-07-29T08:55:40;21.00;99.90
7844;DHT22;3967;48.702;9.326;2023-07-29T08:58:07;21.10;99.90
7844;DHT22;3967;48.702;9.326;2023-07-29T09:00:34;21.10;99.90
7844;DHT22;3967;48.702;9.326;2023-07-29T09:03:01;21.10;99.90
7844;DHT22;3967;48.702;9.326;2023-07-29T09:05:33;21.20;99.90
7844;DHT22;3967;48.702;9.326;2023-07-29T09:08:02;21.70;99.90
7844;DHT22;3967;48.702;9.326;2023-07-29T09:10:29;22.00;99.90
7844;DHT22;3967;48.702;9.326;2023-07-29T09:12:56;22.30;99.90
7844;DHT22;3967;48.702;9.326;2023-07-29T09:15:30;22.60;99.90
7844;DHT22;3967;48.702;9.326;2023-07-29T09:17:58;22.50;99.90
7844;DHT22;3967;48.702;9.326;2023-07-29T09:20:28;22.60;99.90
7844;DHT22;3967;48.702;9.326;2023-07-29T09:22:57;22.80;99.90
7844;DHT22;3967;48.702;9.326;2023-07-29T09:25:29;22.90;99.90
7844;DHT22;3967;48.702;9.326;2023-07-29T09:28:00;23.30;99.90
7844;DHT22;3967;48.702;9.326;2023-07-29T09:30:27;23.40;99.90
7844;DHT22;3967;48.702;9.326;2023-07-29T09:32:58;23.40;99.90
7844;DHT22;3967;48.702;9.326;2023-07-29T09:35:29;23.50;99.90
7844;DHT22;3967;48.702;9.326;2023-07-29T09:37:56;23.70;99.90
7844;DHT22;3967;48.702;9.326;2023-07-29T09:40:23;23.60;99.90
7844;DHT22;3967;48.702;9.326;2023-07-29T09:42:51;23.60;99.90
7844;DHT22;3967;48.702;9.326;2023-07-29T09:45:26;23.50;99.90
7844;DHT22;3967;48.702;9.326;2023-07-29T09:47:53;23.50;99.90
7844;DHT22;3967;48.702;9.326;2023-07-29T09:50:24;23.80;99.90
7844;DHT22;3967;48.702;9.326;2023-07-29T09:52:53;23.80;99.90
7844;DHT22;3967;48.702;9.326;2023-07-29T09:55:22;23.70;99.90
7844;DHT22;3967;48.702;9.326;2023-07-29T09:57:57;23.90;99.90
7844;DHT22;3967;48.702;9.326;2023-07-29T10:00:31;24.50;99.90
7844;DHT22;3967;48.702;9.326;2023-07-29T10:02:59;24.80;99.90
7844;DHT22;3967;48.702;9.326;2023-07-29T10:05:28;24.80;99.90
7844;DHT22;3967;48.702;9.326;2023-07-29T10:07:56;24.70;99.90
7844;DHT22;3967;48.702;9.326;2023-07-29T10:10:23;24.50;99.90
7844;DHT22;3967;48.702;9.326;2023-07-29T10:12:50;24.60;99.90
7844;DHT22;3967;48.702;9.326;2023-07-29T10:15:17;24.60;99.90
7844;DHT22;3967;48.702;9.326;2023-07-29T10:17:45;24.90;99.90
7844;DHT22;3967;48.702;9.326;2023-07-29T10:20:15;24.80;99.90
7844;DHT22;3967;48.702;9.326;2023-07-29T10:22:45;25.10;99.90
7844;DHT22;3967;48.702;9.326;2023-07-29T10:25:18;25.30;99.90
7844;DHT22;3967;48.702;9.326;2023-07-29T10:28:05;25.00;99.90
7844;DHT22;3967;48.702;9.326;2023-07-29T10:30:32;25.20;99.90
7844;DHT22;3967;48.702;9.326;2023-07-29T10:33:03;25.30;98.10
7844;DHT22;3967;48.702;9.326;2023-07-29T10:35:33;25.70;99.10
7844;DHT22;3967;48.702;9.326;2023-07-29T10:38:02;25.90;98.90
7844;DHT22;3967;48.702;9.326;2023-07-29T10:40:50;26.00;96.90
7844;DHT22;3967;48.702;9.326;2023-07-29T10:43:26;25.50;94.60
7844;DHT22;3967;48.702;9.326;2023-07-29T10:45:54;25.60;96.10
7844;DHT22;3967;48.702;9.326;2023-07-29T10:48:40;25.80;95.70
7844;DHT22;3967;48.702;9.326;2023-07-29T10:51:36;25.80;94.30
7844;DHT22;3967;48.702;9.326;2023-07-29T10:56:30;25.50;93.70
7844;DHT22;3967;48.702;9.326;2023-07-29T11:01:42;25.70;93.60
7844;DHT22;3967;48.702;9.326;2023-07-29T11:09:51;25.80;91.20
7844;DHT22;3967;48.702;9.326;2023-07-29T11:12:41;25.80;89.60
7844;DHT22;3967;48.702;9.326;2023-07-29T11:15:20;25.90;90.00
7844;DHT22;3967;48.702;9.326;2023-07-29T11:17:52;26.10;88.00
7844;DHT22;3967;48.702;9.326;2023-07-29T11:20:24;26.30;89.30
7844;DHT22;3967;48.702;9.326;2023-07-29T11:22:56;26.40;84.30
7844;DHT22;3967;48.702;9.326;2023-07-29T11:25:24;26.40;84.00
7844;DHT22;3967;48.702;9.326;2023-07-29T11:27:53;26.30;81.10
7844;DHT22;3967;48.702;9.326;2023-07-29T11:30:20;26.20;81.50
7844;DHT22;3967;48.702;9.326;2023-07-29T11:32:47;26.40;82.40
7844;DHT22;3967;48.702;9.326;2023-07-29T11:35:16;26.40;80.50
7844;DHT22;3967;48.702;9.326;2023-07-29T11:37:48;26.50;81.70
7844;DHT22;3967;48.702;9.326;2023-07-29T11:40:20;26.40;82.00
7844;DHT22;3967;48.702;9.326;2023-07-29T11:42:48;26.70;82.80
7844;DHT22;3967;48.702;9.326;2023-07-29T11:45:17;26.80;81.20
7844;DHT22;3967;48.702;9.326;2023-07-29T11:47:45;26.70;80.80
7844;DHT22;3967;48.702;9.326;2023-07-29T11:50:13;26.70;78.50
7844;DHT22;3967;48.702;9.326;2023-07-29T11:52:42;27.00;80.20
7844;DHT22;3967;48.702;9.326;2023-07-29T11:55:09;27.10;79.60
7844;DHT22;3967;48.702;9.326;2023-07-29T11:57:38;27.20;77.00
7844;DHT22;3967;48.702;9.326;2023-07-29T12:00:07;27.40;76.50
7844;DHT22;3967;48.702;9.326;2023-07-29T12:02:36;27.70;79.80
7844;DHT22;3967;48.702;9.326;2023-07-29T12:05:04;27.60;75.40
7844;DHT22;3967;48.702;9.326;2023-07-29T12:07:32;27.50;76.30
7844;DHT22;3967;48.702;9.326;2023-07-29T12:10:01;27.30;75.60
7844;DHT22;3967;48.702;9.326;2023-07-29T12:12:29;27.30;74.30
7844;DHT22;3967;48.702;9.326;2023-07-29T12:14:56;27.40;74.50
7844;DHT22;3967;48.702;9.326;2023-07-29T12:17:23;27.60;74.50
7844;DHT22;3967;48.702;9.326;2023-07-29T12:19:54;27.60;73.80
7844;DHT22;3967;48.702;9.326;2023-07-29T12:22:21;27.70;74.00
7844;DHT22;3967;48.702;9.326;2023-07-29T12:24:51;27.90;75.00
7844;DHT22;3967;48.702;9.326;2023-07-29T12:27:21;28.00;75.10
7844;DHT22;3967;48.702;9.326;2023-07-29T12:29:51;27.80;74.30
7844;DHT22;3967;48.702;9.326;2023-07-29T12:32:18;27.90;74.20
7844;DHT22;3967;48.702;9.326;2023-07-29T12:34:45;27.80;75.00
7844;DHT22;3967;48.702;9.326;2023-07-29T12:37:12;27.50;71.50
7844;DHT22;3967;48.702;9.326;2023-07-29T12:39:41;27.50;71.60
7844;DHT22;3967;48.702;9.326;2023-07-29T12:42:09;27.50;69.80
7844;DHT22;3967;48.702;9.326;2023-07-29T12:44:36;27.60;70.60
7844;DHT22;3967;48.702;9.326;2023-07-29T12:47:05;27.60;69.10
7844;DHT22;3967;48.702;9.326;2023-07-29T12:49:32;27.70;69.10
7844;DHT22;3967;48.702;9.326;2023-07-29T12:52:00;27.80;70.50
7844;DHT22;3967;48.702;9.326;2023-07-29T12:54:27;27.90;69.70
7844;DHT22;3967;48.702;9.326;2023-07-29T12:56:53;27.70;68.70
7844;DHT22;3967;48.702;9.326;2023-07-29T12:59:20;27.70;69.70
7844;DHT22;3967;48.702;9.326;2023-07-29T13:01:47;27.70;70.70
7844;DHT22;3967;48.702;9.326;2023-07-29T13:04:14;27.80;69.30
7844;DHT22;3967;48.702;9.326;2023-07-29T13:06:41;27.60;68.70
7844;DHT22;3967;48.702;9.326;2023-07-29T13:09:08;27.60;71.30
7844;DHT22;3967;48.702;9.326;2023-07-29T13:11:35;27.50;70.10
7844;DHT22;3967;48.702;9.326;2023-07-29T13:14:02;27.40;71.60
7844;DHT22;3967;48.702;9.326;2023-07-29T13:16:29;27.80;71.80
7844;DHT22;3967;48.702;9.326;2023-07-29T13:18:56;27.70;70.60
7844;DHT22;3967;48.702;9.326;2023-07-29T13:21:23;27.70;69.80
7844;DHT22;3967;48.702;9.326;2023-07-29T13:23:51;27.60;70.90
7844;DHT22;3967;48.702;9.326;2023-07-29T13:26:18;27.60;69.70
7844;DHT22;3967;48.702;9.326;2023-07-29T13:28:45;27.70;70.80
7844;DHT22;3967;48.702;9.326;2023-07-29T13:31:11;27.80;70.00
7844;DHT22;3967;48.702;9.326;2023-07-29T13:33:39;27.80;69.40
7844;DHT22;3967;48.702;9.326;2023-07-29T13:36:06;27.70;68.80
7844;DHT22;3967;48.702;9.326;2023-07-29T13:38:34;27.50;68.60
7844;DHT22;3967;48.702;9.326;2023-07-29T13:41:01;27.50;70.60
7844;DHT22;3967;48.702;9.326;2023-07-29T13:43:28;27.50;69.70
7844;DHT22;3967;48.702;9.326;2023-07-29T13:45:55;27.60;68.90
7844;DHT22;3967;48.702;9.326;2023-07-29T13:48:22;27.80;69.40
7844;DHT22;3967;48.702;9.326;2023-07-29T13:50:49;28.00;69.70
7844;DHT22;3967;48.702;9.326;2023-07-29T13:53:17;28.10;69.80
7844;DHT22;3967;48.702;9.326;2023-07-29T13:55:44;28.00;67.40
7844;DHT22;3967;48.702;9.326;2023-07-29T13:58:11;28.00;67.30
7844;DHT22;3967;48.702;9.326;2023-07-29T14:00:37;27.90;67.00
7844;DHT22;3967;48.702;9.326;2023-07-29T14:03:04;27.90;67.40
7844;DHT22;3967;48.702;9.326;2023-07-29T14:05:31;27.80;67.40
7844;DHT22;3967;48.702;9.326;2023-07-29T14:07:58;27.80;67.10
7844;DHT22;3967;48.702;9.326;2023-07-29T14:10:25;27.80;67.20
7844;DHT22;3967;48.702;9.326;2023-07-29T14:12:52;27.90;67.70
7844;DHT22;3967;48.702;9.326;2023-07-29T14:15:19;27.90;66.90
7844;DHT22;3967;48.702;9.326;2023-07-29T14:17:45;28.10;66.10
7844;DHT22;3967;48.702;9.326;2023-07-29T14:20:13;28.10;66.80
7844;DHT22;3967;48.702;9.326;2023-07-29T14:22:40;28.00;66.90
7844;DHT22;3967;48.702;9.326;2023-07-29T14:25:07;28.10;68.00
7844;DHT22;3967;48.702;9.326;2023-07-29T14:27:34;27.90;67.40
7844;DHT22;3967;48.702;9.326;2023-07-29T14:30:01;27.80;66.40
7844;DHT22;3967;48.702;9.326;2023-07-29T14:32:28;27.70;66.60
7844;DHT22;3967;48.702;9.326;2023-07-29T14:34:55;27.60;66.30
7844;DHT22;3967;48.702;9.326;2023-07-29T14:37:22;27.70;67.10
7844;DHT22;3967;48.702;9.326;2023-07-29T14:39:49;27.80;67.20
7844;DHT22;3967;48.702;9.326;2023-07-29T14:42:15;27.70;67.00
7844;DHT22;3967;48.702;9.326;2023-07-29T14:44:42;27.80;66.70
7844;DHT22;3967;48.702;9.326;2023-07-29T14:47:09;27.70;66.00
7844;DHT22;3967;48.702;9.326;2023-07-29T14:49:36;27.50;65.80
7844;DHT22;3967;48.702;9.326;2023-07-29T14:52:03;27.40;66.00
7844;DHT22;3967;48.702;9.326;2023-07-29T14:54:30;27.50;66.50
7844;DHT22;3967;48.702;9.326;2023-07-29T14:56:56;27.50;67.00
7844;DHT22;3967;48.702;9.326;2023-07-29T14:59:23;27.70;66.90
7844;DHT22;3967;48.702;9.326;2023-07-29T15:01:50;27.60;66.70
7844;DHT22;3967;48.702;9.326;2023-07-29T15:04:17;27.80;66.90
7844;DHT22;3967;48.702;9.326;2023-07-29T15:06:44;27.80;66.30
7844;DHT22;3967;48.702;9.326;2023-07-29T15:09:10;27.60;66.90
7844;DHT22;3967;48.702;9.326;2023-07-29T15:11:37;27.60;66.80
7844;DHT22;3967;48.702;9.326;2023-07-29T15:14:04;27.40;67.40
7844;DHT22;3967;48.702;9.326;2023-07-29T15:16:30;27.30;67.10
7844;DHT22;3967;48.702;9.326;2023-07-29T15:18:57;27.40;67.90
7844;DHT22;3967;48.702;9.326;2023-07-29T15:21:24;27.30;68.20
7844;DHT22;3967;48.702;9.326;2023-07-29T15:23:51;27.40;67.90
7844;DHT22;3967;48.702;9.326;2023-07-29T15:26:18;27.30;67.90
7844;DHT22;3967;48.702;9.326;2023-07-29T15:28:45;27.20;67.20
7844;DHT22;3967;48.702;9.326;2023-07-29T15:31:13;27.20;68.40
7844;DHT22;3967;48.702;9.326;2023-07-29T15:33:40;27.20;67.90
7844;DHT22;3967;48.702;9.326;2023-07-29T15:36:06;27.10;68.50
7844;DHT22;3967;48.702;9.326;2023-07-29T15:38:33;27.10;68.50
7844;DHT22;3967;48.702;9.326;2023-07-29T15:41:02;27.10;68.60
7844;DHT22;3967;48.702;9.326;2023-07-29T15:43:28;27.30;68.40
7844;DHT22;3967;48.702;9.326;2023-07-29T15:45:55;27.30;68.40
7844;DHT22;3967;48.702;9.326;2023-07-29T15:48:24;27.40;69.00
7844;DHT22;3967;48.702;9.326;2023-07-29T15:50:50;27.50;68.20
7844;DHT22;3967;48.702;9.326;2023-07-29T15:53:17;27.60;68.40
7844;DHT22;3967;48.702;9.326;2023-07-29T15:55:44;27.60;68.40
7844;DHT22;3967;48.702;9.326;2023-07-29T15:58:11;27.40;67.30
7844;DHT22;3967;48.702;9.326;2023-07-29T16:00:38;27.40;68.80
7844;DHT22;3967;48.702;9.326;2023-07-29T16:03:04;27.40;68.80
7844;DHT22;3967;48.702;9.326;2023-07-29T16:05:31;27.40;69.20
7844;DHT22;3967;48.702;9.326;2023-07-29T16:07:58;27.50;69.30
7844;DHT22;3967;48.702;9.326;2023-07-29T16:10:25;27.40;68.80
7844;DHT22;3967;48.702;9.326;2023-07-29T16:12:52;27.30;68.30
7844;DHT22;3967;48.702;9.326;2023-07-29T16:15:18;27.30;68.60
7844;DHT22;3967;48.702;9.326;2023-07-29T16:17:45;27.30;69.10
7844;DHT22;3967;48.702;9.326;2023-07-29T16:20:16;27.30;69.10
7844;DHT22;3967;48.702;9.326;2023-07-29T16:22:43;27.20;69.70